Terminal Aerodrome Forecast
Issued by NWS Amarillo, TX

Current Version | Previous Version | Text Only | Print | Product List | Glossary On
Versions: 1 2 3 4 5 6 7 8 9 10 11 12 13 14 15 16 17 18 19
580
FTUS44 KAMA 261303 AAA
TAFGUY
TAF AMD
KGUY 261303Z 2613/2712 12006KT P6SM OVC005
      TEMPO 2613/2615 6SM BR
     FM261600 13008KT P6SM SCT070
     FM270700 20005KT P6SM SCT250=

USA.gov is the U.S. government's official web portal to all federal, state and local government web resources and services.